createdAt,value
2018-01-06T00:00:20.292Z,29
2018-01-06T00:01:20.288Z,29
2018-01-06T00:02:22.316Z,29
2018-01-06T00:03:20.215Z,29
2018-01-06T00:04:20.186Z,28.9
2018-01-06T00:05:20.196Z,28.9
2018-01-06T00:06:20.591Z,28.9
2018-01-06T00:07:22.262Z,28.9
2018-01-06T00:08:20.450Z,28.9
2018-01-06T00:09:20.576Z,29
2018-01-06T00:10:20.822Z,28.9
2018-01-06T00:11:20.603Z,28.9
2018-01-06T00:12:20.743Z,28.9
2018-01-06T00:13:20.797Z,28.9
2018-01-06T00:14:20.936Z,28.9
2018-01-06T00:15:20.934Z,28.9
2018-01-06T00:16:21.005Z,28.9
2018-01-06T00:17:23.151Z,28.9
2018-01-06T00:18:21.235Z,28.9
2018-01-06T00:19:21.038Z,28.9
2018-01-06T00:20:23.049Z,28.9
2018-01-06T00:21:21.358Z,28.9
2018-01-06T00:22:23.372Z,28.9
2018-01-06T00:23:21.286Z,28.9
2018-01-06T00:24:21.581Z,28.9
2018-01-06T00:25:21.656Z,28.9
2018-01-06T00:26:23.675Z,28.9
2018-01-06T00:27:21.811Z,28.9
2018-01-06T00:28:21.882Z,28.9
2018-01-06T00:29:21.681Z,28.9
2018-01-06T00:30:21.967Z,28.9
2018-01-06T00:31:22.062Z,28.9
2018-01-06T00:32:24.038Z,28.9
2018-01-06T00:33:24.041Z,28.9
2018-01-06T00:34:23.864Z,28.9
2018-01-06T00:35:23.995Z,28.9
2018-01-06T00:36:22.273Z,28.9
2018-01-06T00:37:23.997Z,28.9
2018-01-06T00:38:22.069Z,28.9
2018-01-06T00:39:22.293Z,28.9
2018-01-06T00:40:22.147Z,28.9
2018-01-06T00:41:24.137Z,28.9
2018-01-06T00:42:22.291Z,28.9
2018-01-06T00:43:22.365Z,28.9
2018-01-06T00:44:24.493Z,28.9
2018-01-06T00:45:24.554Z,28.9
2018-01-06T00:46:22.503Z,28.9
2018-01-06T00:47:22.733Z,28.9
2018-01-06T00:48:24.720Z,28.9
2018-01-06T00:49:22.775Z,28.9
2018-01-06T00:50:22.800Z,28.9
2018-01-06T00:51:24.751Z,28.9
2018-01-06T00:52:22.877Z,28.9
2018-01-06T00:53:22.727Z,28.9
2018-01-06T00:54:22.956Z,28.9
2018-01-06T00:55:22.998Z,28.9
2018-01-06T00:56:22.806Z,28.9
2018-01-06T00:57:22.780Z,28.9
2018-01-06T00:58:24.817Z,28.9
2018-01-06T00:59:22.920Z,28.9
2018-01-06T01:00:22.988Z,28.9
2018-01-06T01:01:24.939Z,28.9
2018-01-06T01:02:24.989Z,28.9
2018-01-06T01:03:25.156Z,28.9
2018-01-06T01:04:23.043Z,28.9
2018-01-06T01:05:25.256Z,28.9
2018-01-06T01:06:23.086Z,28.9
2018-01-06T01:07:23.160Z,28.9
2018-01-06T01:08:25.367Z,28.9
2018-01-06T01:09:25.473Z,28.9
2018-01-06T01:10:23.444Z,28.9
2018-01-06T01:11:25.637Z,28.9
2018-01-06T01:12:23.560Z,28.9
2018-01-06T01:13:25.785Z,28.9
2018-01-06T01:14:23.932Z,28.9
2018-01-06T01:15:23.722Z,28.9
2018-01-06T01:16:23.942Z,28.9
2018-01-06T01:17:25.980Z,28.8
2018-01-06T01:18:26.046Z,28.9
2018-01-06T01:19:23.976Z,28.9
2018-01-06T01:20:23.992Z,28.8
2018-01-06T01:21:25.971Z,28.9
2018-01-06T01:22:26.264Z,28.9
2018-01-06T01:23:24.178Z,28.9
2018-01-06T01:24:26.381Z,28.9
2018-01-06T01:25:26.187Z,28.9
2018-01-06T01:26:26.558Z,28.9
2018-01-06T01:27:24.574Z,28.9
2018-01-06T01:28:26.354Z,28.9
2018-01-06T01:29:24.735Z,28.9
2018-01-06T01:30:24.757Z,28.9
2018-01-06T01:31:24.815Z,28.9
2018-01-06T01:32:24.888Z,28.9
2018-01-06T01:33:26.617Z,28.9
2018-01-06T01:34:24.745Z,28.9
2018-01-06T01:35:27.033Z,28.9
2018-01-06T01:36:26.863Z,28.9
2018-01-06T01:37:27.149Z,28.9
2018-01-06T01:38:24.998Z,28.8
2018-01-06T01:39:25.015Z,28.9
2018-01-06T01:40:25.087Z,28.8
2018-01-06T01:41:27.035Z,28.9
2018-01-06T01:42:25.119Z,28.9
2018-01-06T01:43:27.343Z,28.9
2018-01-06T01:44:25.420Z,28.9
2018-01-06T01:45:25.427Z,28.8
2018-01-06T01:46:25.492Z,28.9
2018-01-06T01:47:25.320Z,28.9
2018-01-06T01:48:25.567Z,28.8
2018-01-06T01:49:27.551Z,28.8
2018-01-06T01:50:25.452Z,28.8
2018-01-06T01:51:27.652Z,28.8
2018-01-06T01:52:25.714Z,28.8
2018-01-06T01:53:27.712Z,28.8
2018-01-06T01:54:25.548Z,28.8
2018-01-06T01:55:25.818Z,28.8
2018-01-06T01:56:27.746Z,28.8
2018-01-06T01:57:27.788Z,28.8
2018-01-06T01:58:25.893Z,28.8
2018-01-06T01:59:27.623Z,28.8
2018-01-06T02:00:25.935Z,28.8
2018-01-06T02:01:27.870Z,28.8
2018-01-06T02:02:25.906Z,28.8
2018-01-06T02:03:28.121Z,28.8
2018-01-06T02:04:26.041Z,28.8
2018-01-06T02:05:28.221Z,28.8
2018-01-06T02:06:26.147Z,28.8
2018-01-06T02:07:26.489Z,28.8
2018-01-06T02:08:26.242Z,28.8
2018-01-06T02:09:26.301Z,28.8
2018-01-06T02:10:26.313Z,28.8
2018-01-06T02:11:28.480Z,28.8
2018-01-06T02:12:26.588Z,28.8
2018-01-06T02:13:28.536Z,28.8
2018-01-06T02:14:26.718Z,28.8
2018-01-06T02:15:28.760Z,28.8
2018-01-06T02:16:26.846Z,28.8
2018-01-06T02:17:28.575Z,28.8
2018-01-06T02:18:28.891Z,28.8
2018-01-06T02:19:26.823Z,28.8
2018-01-06T02:20:29.027Z,28.8
2018-01-06T02:21:27.123Z,28.8
2018-01-06T02:22:26.991Z,28.8
2018-01-06T02:23:27.030Z,28.8
2018-01-06T02:24:29.046Z,28.8
2018-01-06T02:25:29.299Z,28.8
2018-01-06T02:26:27.177Z,28.8
2018-01-06T02:27:29.298Z,28.8
2018-01-06T02:28:27.240Z,28.8
2018-01-06T02:29:29.145Z,28.8
2018-01-06T02:30:27.480Z,28.8
2018-01-06T02:31:27.341Z,28.8
2018-01-06T02:32:27.390Z,28.8
2018-01-06T02:33:27.597Z,28.8
2018-01-06T02:34:27.643Z,28.8
2018-01-06T02:35:27.726Z,28.8
2018-01-06T02:36:27.534Z,28.8
2018-01-06T02:37:29.532Z,28.8
2018-01-06T02:38:27.666Z,28.8
2018-01-06T02:39:29.900Z,28.8
2018-01-06T02:40:27.823Z,28.8
2018-01-06T02:41:27.876Z,28.8
2018-01-06T02:42:27.935Z,28.8
2018-01-06T02:43:30.119Z,28.8
2018-01-06T02:44:27.968Z,28.8
2018-01-06T02:45:28.084Z,28.8
2018-01-06T02:46:28.133Z,28.8
2018-01-06T02:47:28.372Z,28.8
2018-01-06T02:48:30.378Z,28.8
2018-01-06T02:49:30.432Z,28.8
2018-01-06T02:50:28.508Z,28.8
2018-01-06T02:51:28.431Z,28.8
2018-01-06T02:52:28.585Z,28.8
2018-01-06T02:53:28.598Z,28.8
2018-01-06T02:54:28.725Z,28.8
2018-01-06T02:55:30.680Z,28.8
2018-01-06T02:56:28.606Z,28.8
2018-01-06T02:57:30.534Z,28.8
2018-01-06T02:58:28.878Z,28.8
2018-01-06T02:59:28.942Z,28.8
2018-01-06T03:00:28.994Z,28.8
2018-01-06T03:01:31.002Z,28.8
2018-01-06T03:02:31.024Z,28.8
2018-01-06T03:03:29.080Z,28.8
2018-01-06T03:04:28.877Z,28.8
2018-01-06T03:46:50.763Z,29
2018-01-06T03:47:52.759Z,29
2018-01-06T03:48:50.808Z,29
2018-01-06T03:49:52.772Z,29
2018-01-06T03:50:52.554Z,29
2018-01-06T03:51:50.720Z,29
2018-01-06T03:52:50.781Z,29
2018-01-06T03:53:52.824Z,29
2018-01-06T03:54:53.080Z,28.9
2018-01-06T03:55:52.914Z,28.9
2018-01-06T03:56:51.059Z,28.9
2018-01-06T03:57:51.259Z,28.9
2018-01-06T03:58:53.106Z,28.9
2018-01-06T03:59:51.209Z,28.9
2018-01-06T04:00:51.495Z,28.9
2018-01-06T04:01:51.310Z,28.8
2018-01-06T04:02:51.354Z,28.8
2018-01-06T04:03:53.517Z,28.8
2018-01-06T04:04:53.554Z,28.8
2018-01-06T04:05:51.472Z,28.8
2018-01-06T04:06:51.587Z,28.8
2018-01-06T04:07:51.816Z,28.8
2018-01-06T04:08:53.751Z,28.8
2018-01-06T04:09:53.804Z,28.8
2018-01-06T04:10:51.706Z,28.8
2018-01-06T04:11:53.877Z,28.8
2018-01-06T04:12:51.829Z,28.8
2018-01-06T04:13:54.031Z,28.8
2018-01-06T04:14:54.060Z,28.8
2018-01-06T04:15:54.171Z,28.8
2018-01-06T04:16:52.265Z,28.8
2018-01-06T04:17:52.120Z,28.8
2018-01-06T04:18:54.269Z,28.7
2018-01-06T04:19:52.331Z,28.8
2018-01-06T04:20:54.308Z,28.7
2018-01-06T04:21:52.265Z,28.7
2018-01-06T04:22:52.293Z,28.7
2018-01-06T04:23:52.494Z,28.7
2018-01-06T04:24:54.285Z,28.7
2018-01-06T04:25:54.558Z,28.7
2018-01-06T04:26:52.379Z,28.7
2018-01-06T04:27:54.415Z,28.7
2018-01-06T04:28:54.452Z,28.7
2018-01-06T04:29:54.532Z,28.7
2018-01-06T04:30:52.633Z,28.7
2018-01-06T04:31:54.820Z,28.7
2018-01-06T04:32:52.961Z,28.7
2018-01-06T04:33:52.846Z,28.7
2018-01-06T04:34:54.721Z,28.7
2018-01-06T04:35:55.035Z,28.7
2018-01-06T04:36:53.024Z,28.7
2018-01-06T04:37:53.126Z,28.7
2018-01-06T04:38:55.084Z,28.7
2018-01-06T04:39:55.151Z,28.7
2018-01-06T04:40:53.046Z,28.7
2018-01-06T04:41:53.272Z,28.7
2018-01-06T04:42:53.313Z,28.7
2018-01-06T04:43:55.360Z,28.7
2018-01-06T04:44:55.435Z,28.7
2018-01-06T04:45:53.333Z,28.7
2018-01-06T04:46:55.287Z,28.7
2018-01-06T04:47:53.355Z,28.7
2018-01-06T04:48:55.361Z,28.7
2018-01-06T04:49:53.731Z,28.7
2018-01-06T04:50:55.466Z,28.7
2018-01-06T04:51:59.085Z,28.7
2018-01-06T04:52:53.792Z,28.7
2018-01-06T04:53:55.764Z,28.7
2018-01-06T04:54:53.605Z,28.7
2018-01-06T04:55:53.761Z,28.6
2018-01-06T04:56:55.725Z,28.7
2018-01-06T04:57:55.727Z,28.7
2018-01-06T04:58:54.094Z,28.7
2018-01-06T04:59:55.843Z,28.7
2018-01-06T05:00:55.912Z,28.7
2018-01-06T05:01:56.229Z,28.7
2018-01-06T05:02:54.170Z,28.7
2018-01-06T05:03:54.209Z,28.7
2018-01-06T05:04:56.114Z,28.7
2018-01-06T05:05:54.245Z,28.7
2018-01-06T05:06:54.363Z,28.7
2018-01-06T05:07:56.326Z,28.7
2018-01-06T05:08:54.506Z,28.7
2018-01-06T05:09:56.731Z,28.7
2018-01-06T05:10:56.518Z,28.7
2018-01-06T05:11:54.853Z,28.7
2018-01-06T05:12:56.626Z,28.7
2018-01-06T05:13:56.926Z,28.6
2018-01-06T05:14:56.721Z,28.7
2018-01-06T05:15:54.902Z,28.6
2018-01-06T05:16:54.915Z,28.6
2018-01-06T05:17:56.930Z,28.6
2018-01-06T05:18:55.075Z,28.6
2018-01-06T05:19:57.329Z,28.6
2018-01-06T05:20:57.436Z,28.6
2018-01-06T05:21:55.535Z,28.6
2018-01-06T05:22:55.593Z,28.6
2018-01-06T05:23:55.644Z,28.6
2018-01-06T05:24:57.696Z,28.6
2018-01-06T05:25:55.654Z,28.6
2018-01-06T05:26:57.745Z,28.6
2018-01-06T05:27:57.780Z,28.6
2018-01-06T05:28:57.641Z,28.6
2018-01-06T05:29:55.981Z,28.6
2018-01-06T05:30:56.026Z,28.6
2018-01-06T05:31:55.842Z,28.6
2018-01-06T05:32:55.908Z,28.6
2018-01-06T05:33:58.122Z,28.6
2018-01-06T05:34:58.212Z,28.6
2018-01-06T05:35:58.256Z,28.6
2018-01-06T05:36:56.341Z,28.6
2018-01-06T05:37:58.580Z,28.6
2018-01-06T05:38:56.427Z,28.6
2018-01-06T05:39:58.444Z,28.6
2018-01-06T05:40:56.519Z,28.6
2018-01-06T05:41:56.506Z,28.6
2018-01-06T05:42:58.508Z,28.6
2018-01-06T05:43:58.288Z,28.6
2018-01-06T05:44:56.647Z,28.6
2018-01-06T05:45:56.503Z,28.6
2018-01-06T05:46:56.602Z,28.6
2018-01-06T05:47:56.584Z,28.6
2018-01-06T05:48:56.629Z,28.6
2018-01-06T05:49:56.708Z,28.6
2018-01-06T05:50:56.751Z,28.6
2018-01-06T05:51:58.985Z,28.6
2018-01-06T05:52:56.911Z,28.6
2018-01-06T05:53:57.139Z,28.6
2018-01-06T05:54:59.156Z,28.6
2018-01-06T05:55:56.960Z,28.6
2018-01-06T05:56:57.033Z,28.6
2018-01-06T05:57:57.295Z,28.6
2018-01-06T05:58:57.151Z,28.6
2018-01-06T05:59:59.359Z,28.6
2018-01-06T06:00:57.336Z,28.6
2018-01-06T06:01:57.294Z,28.6
2018-01-06T06:02:59.457Z,28.6
2018-01-06T06:03:59.330Z,28.6
2018-01-06T06:04:59.322Z,28.6
2018-01-06T06:05:59.578Z,28.6
2018-01-06T06:06:57.597Z,28.6
2018-01-06T06:07:59.718Z,28.6
2018-01-06T06:08:59.693Z,28.6
2018-01-06T06:09:59.803Z,28.6
2018-01-06T06:10:57.913Z,28.6
2018-01-06T06:11:57.967Z,28.6
2018-01-06T06:12:57.853Z,28.6
2018-01-06T06:13:59.972Z,28.6
2018-01-06T06:14:58.145Z,28.6
2018-01-06T06:15:57.990Z,28.6
2018-01-06T06:17:00.165Z,28.6
2018-01-06T06:17:58.101Z,28.6
2018-01-06T06:18:58.116Z,28.6
2018-01-06T06:20:00.357Z,28.6
2018-01-06T06:20:58.525Z,28.6
2018-01-06T06:21:58.335Z,28.6
2018-01-06T06:23:00.491Z,28.6
2018-01-06T06:24:00.587Z,28.5
2018-01-06T06:24:58.494Z,28.5
2018-01-06T06:25:58.693Z,28.5
2018-01-06T06:27:00.462Z,28.5
2018-01-06T06:27:58.573Z,28.5
2018-01-06T06:28:58.579Z,28.5
2018-01-06T06:29:58.856Z,28.6
2018-01-06T06:30:58.776Z,28.6
2018-01-06T06:31:59.009Z,28.6
2018-01-06T06:32:58.792Z,28.6
2018-01-06T06:34:00.937Z,28.6
2018-01-06T06:34:58.910Z,28.6
2018-01-06T06:35:58.873Z,28.6
2018-01-06T06:36:59.061Z,28.6
2018-01-06T06:38:01.088Z,28.6
2018-01-06T06:38:58.940Z,28.6
2018-01-06T06:39:58.961Z,28.6
2018-01-06T06:40:59.014Z,28.6
2018-01-06T06:42:01.319Z,28.5
2018-01-06T06:42:59.163Z,28.5
2018-01-06T06:44:01.364Z,28.5
2018-01-06T06:45:01.188Z,28.6
2018-01-06T06:46:01.482Z,28.6
2018-01-06T06:47:01.368Z,28.6
2018-01-06T06:47:59.397Z,28.6
2018-01-06T06:48:59.734Z,28.6
2018-01-06T06:49:59.582Z,28.6
2018-01-06T06:50:59.636Z,28.6
2018-01-06T06:51:59.918Z,28.6
2018-01-06T06:53:01.924Z,28.6
2018-01-06T06:53:59.764Z,28.6
2018-01-06T06:55:01.700Z,28.6
2018-01-06T06:56:00.049Z,28.6
2018-01-06T06:56:59.834Z,28.6
2018-01-06T06:58:00.129Z,28.6
2018-01-06T06:59:02.211Z,28.6
2018-01-06T07:00:00.066Z,28.6
2018-01-06T07:01:02.261Z,28.6
2018-01-06T07:02:00.235Z,28.6
2018-01-06T07:03:00.400Z,28.6
2018-01-06T07:04:02.501Z,28.6
2018-01-06T07:05:02.299Z,28.6
2018-01-06T07:06:02.589Z,28.6
2018-01-06T07:07:02.577Z,28.6
2018-01-06T07:08:00.537Z,28.6
2018-01-06T07:09:00.611Z,28.6
2018-01-06T07:10:02.599Z,28.6
2018-01-06T07:11:00.729Z,28.6
2018-01-06T07:12:02.847Z,28.5
2018-01-06T07:13:00.959Z,28.5
2018-01-06T07:14:00.835Z,28.5
2018-01-06T07:15:00.918Z,28.5
2018-01-06T07:16:00.995Z,28.5
2018-01-06T07:17:03.142Z,28.5
2018-01-06T07:18:03.273Z,28.5
2018-01-06T07:19:01.338Z,28.5
2018-01-06T07:20:03.331Z,28.5
2018-01-06T07:21:01.283Z,28.5
2018-01-06T07:22:03.253Z,28.5
2018-01-06T07:23:01.635Z,28.5
2018-01-06T07:24:03.501Z,28.5
2018-01-06T07:25:01.470Z,28.5
2018-01-06T07:26:01.679Z,28.5
2018-01-06T07:27:03.474Z,28.5
2018-01-06T07:28:03.710Z,28.5
2018-01-06T07:29:03.608Z,28.5
2018-01-06T07:30:03.982Z,28.5
2018-01-06T07:31:01.862Z,28.5
2018-01-06T07:32:01.912Z,28.6
2018-01-06T07:33:02.004Z,28.5
2018-01-06T07:34:03.940Z,28.5
2018-01-06T07:35:04.273Z,28.6
2018-01-06T07:36:04.296Z,28.5
2018-01-06T07:37:04.337Z,28.5
2018-01-06T07:38:02.234Z,28.5
2018-01-06T07:39:04.158Z,28.5
2018-01-06T07:40:02.267Z,28.5
2018-01-06T07:41:04.487Z,28.5
2018-01-06T07:42:04.284Z,28.5
2018-01-06T07:43:04.567Z,28.5
2018-01-06T07:44:02.448Z,28.5
2018-01-06T07:45:04.495Z,28.5
2018-01-06T07:46:02.518Z,28.5
2018-01-06T07:47:02.564Z,28.5
2018-01-06T07:48:02.824Z,28.5
2018-01-06T07:49:02.890Z,28.5
2018-01-06T07:50:02.790Z,28.5
2018-01-06T07:51:04.804Z,28.5
2018-01-06T07:52:04.858Z,28.5
2018-01-06T07:53:03.192Z,28.5
2018-01-06T07:54:03.061Z,28.5
2018-01-06T07:55:03.133Z,28.5
2018-01-06T07:56:03.173Z,28.5
2018-01-06T07:57:03.586Z,28.5
2018-01-06T07:58:06.476Z,28.5
2018-01-06T07:59:05.689Z,28.5
2018-01-06T08:00:03.863Z,28.5
2018-01-06T08:01:03.706Z,28.5
2018-01-06T08:02:05.701Z,28.5
2018-01-06T08:03:05.986Z,28.5
2018-01-06T08:04:04.062Z,28.5
2018-01-06T08:05:03.870Z,28.5
2018-01-06T08:06:04.109Z,28.5
2018-01-06T08:07:06.060Z,28.5
2018-01-06T08:08:03.887Z,28.5
2018-01-06T08:09:03.819Z,28.5
2018-01-06T08:10:04.089Z,28.5
2018-01-06T08:11:03.921Z,28.5
2018-01-06T08:12:06.078Z,28.5
2018-01-06T08:13:03.955Z,28.5
2018-01-06T08:14:04.011Z,28.5
2018-01-06T08:15:06.219Z,28.5
2018-01-06T08:16:04.117Z,28.5
2018-01-06T08:17:06.350Z,28.5
2018-01-06T08:18:04.263Z,28.4
2018-01-06T08:19:06.374Z,28.4
2018-01-06T08:20:04.552Z,28.4
2018-01-06T08:21:06.324Z,28.4
2018-01-06T08:22:04.520Z,28.4
2018-01-06T08:23:06.662Z,28.4
2018-01-06T08:24:04.771Z,28.4
2018-01-06T08:25:04.860Z,28.4
2018-01-06T08:26:06.830Z,28.4
2018-01-06T08:27:06.844Z,28.4
2018-01-06T08:28:04.969Z,28.4
2018-01-06T08:29:06.858Z,28.4
2018-01-06T08:30:06.977Z,28.4
2018-01-06T08:31:05.047Z,28.3
2018-01-06T08:32:05.109Z,28.3
2018-01-06T08:33:07.123Z,28.3
2018-01-06T08:34:04.965Z,28.3
2018-01-06T08:35:05.213Z,28.3
2018-01-06T08:36:05.068Z,28.3
2018-01-06T08:37:07.252Z,28.3
2018-01-06T08:38:05.366Z,28.3
2018-01-06T08:39:07.420Z,28.3
2018-01-06T08:40:05.464Z,28.3
2018-01-06T08:41:05.385Z,28.3
2018-01-06T08:42:07.605Z,28.3
2018-01-06T08:43:07.666Z,28.3
2018-01-06T08:44:05.838Z,28.3
2018-01-06T08:45:07.750Z,28.3
2018-01-06T08:46:05.599Z,28.3
2018-01-06T08:47:05.617Z,28.3
2018-01-06T08:48:05.644Z,28.2
2018-01-06T08:49:05.822Z,28.2
2018-01-06T08:50:05.669Z,28.2
2018-01-06T08:51:05.813Z,28.2
2018-01-06T08:52:07.824Z,28.2
2018-01-06T08:53:08.080Z,28.2
2018-01-06T08:54:06.194Z,28.2
2018-01-06T08:55:08.175Z,28.2
2018-01-06T08:56:06.338Z,28.2
2018-01-06T08:57:08.078Z,28.2
2018-01-06T08:58:06.456Z,28.2
2018-01-06T08:59:08.161Z,28.2
2018-01-06T09:00:06.367Z,28.2
2018-01-06T09:01:06.624Z,28.2
2018-01-06T09:02:06.432Z,28.1
2018-01-06T09:03:08.599Z,28.1
2018-01-06T09:04:06.575Z,28.1
2018-01-06T09:05:08.756Z,28.1
2018-01-06T09:06:06.593Z,28.1
2018-01-06T09:07:06.848Z,28.1
2018-01-06T09:08:08.878Z,28.1
2018-01-06T09:09:08.944Z,28.1
2018-01-06T09:10:06.937Z,28.1
2018-01-06T09:11:07.173Z,28.1
2018-01-06T09:12:09.119Z,28.1
2018-01-06T09:13:07.175Z,28.1
2018-01-06T09:14:09.152Z,28
2018-01-06T09:15:07.139Z,28
2018-01-06T09:16:07.132Z,28
2018-01-06T09:17:07.435Z,28
2018-01-06T09:18:07.403Z,28
2018-01-06T09:19:09.433Z,28
2018-01-06T09:20:07.346Z,28
2018-01-06T09:21:07.617Z,28
2018-01-06T09:22:09.571Z,27.9
2018-01-06T09:23:07.533Z,27.9
2018-01-06T09:24:07.587Z,27.9
2018-01-06T09:25:09.813Z,27.9
2018-01-06T09:26:09.846Z,27.9
2018-01-06T09:27:07.988Z,27.9
2018-01-06T09:28:08.052Z,27.9
2018-01-06T09:29:08.833Z,27.9
2018-01-06T09:30:08.151Z,27.8
2018-01-06T09:31:07.988Z,27.9
2018-01-06T09:32:08.072Z,27.9
2018-01-06T09:33:08.378Z,27.8
2018-01-06T09:34:08.203Z,27.9
2018-01-06T09:35:08.791Z,27.9
2018-01-06T09:36:08.274Z,27.9
2018-01-06T09:37:08.285Z,27.9
2018-01-06T09:38:08.571Z,27.9
2018-01-06T09:39:08.640Z,27.9
2018-01-06T09:40:08.713Z,27.9
2018-01-06T09:41:08.495Z,27.9
2018-01-06T09:42:08.571Z,27.9
2018-01-06T09:43:08.628Z,27.9
2018-01-06T09:44:10.782Z,27.8
2018-01-06T09:45:10.563Z,27.8
2018-01-06T09:46:08.950Z,27.8
2018-01-06T09:47:10.931Z,27.8
2018-01-06T09:48:08.743Z,27.8
2018-01-06T09:49:09.035Z,27.8
2018-01-06T09:50:08.907Z,27.8
2018-01-06T09:51:09.224Z,27.8
2018-01-06T09:52:09.266Z,27.8
2018-01-06T09:53:11.242Z,27.8
2018-01-06T09:54:11.062Z,27.8
2018-01-06T09:55:11.312Z,27.8
2018-01-06T09:56:09.420Z,27.7
2018-01-06T09:57:09.317Z,27.7
2018-01-06T09:58:11.547Z,27.7
2018-01-06T09:59:09.410Z,27.7
2018-01-06T10:00:09.652Z,27.7
2018-01-06T10:01:09.562Z,27.7
2018-01-06T10:02:11.758Z,27.7
2018-01-06T10:03:11.586Z,27.6
2018-01-06T10:04:09.904Z,27.6
2018-01-06T10:05:09.735Z,27.6
2018-01-06T10:06:11.930Z,27.6
2018-01-06T10:07:09.839Z,27.5
2018-01-06T10:08:12.031Z,27.5
2018-01-06T10:09:09.922Z,27.5
2018-01-06T10:10:10.229Z,27.5
2018-01-06T10:11:12.212Z,27.6
2018-01-06T10:12:10.076Z,27.6
2018-01-06T10:13:12.327Z,27.6
2018-01-06T10:14:10.197Z,27.6
2018-01-06T10:15:12.349Z,27.6
2018-01-06T10:16:10.306Z,27.7
2018-01-06T10:17:10.468Z,27.7
2018-01-06T10:18:10.489Z,27.7
2018-01-06T10:19:10.278Z,27.7
2018-01-06T10:20:10.381Z,27.7
2018-01-06T10:21:10.483Z,27.7
2018-01-06T10:22:10.536Z,27.7
2018-01-06T10:23:12.550Z,27.7
2018-01-06T10:24:10.808Z,27.7
2018-01-06T10:25:12.784Z,27.7
2018-01-06T10:26:10.641Z,27.7
2018-01-06T10:27:12.662Z,27.6
2018-01-06T10:28:12.860Z,27.6
2018-01-06T10:29:12.679Z,27.6
2018-01-06T10:30:13.024Z,27.6
2018-01-06T10:31:11.107Z,27.6
2018-01-06T10:32:10.977Z,27.6
2018-01-06T10:33:13.163Z,27.6
2018-01-06T10:34:12.909Z,27.6
2018-01-06T10:35:12.967Z,27.6
2018-01-06T10:36:11.098Z,27.6
2018-01-06T10:37:11.071Z,27.6
2018-01-06T10:38:11.167Z,27.6
2018-01-06T10:39:11.267Z,27.6
2018-01-06T10:40:13.344Z,27.6
2018-01-06T10:41:11.290Z,27.6
2018-01-06T10:42:11.405Z,27.6
2018-01-06T10:43:13.364Z,27.6
2018-01-06T10:44:11.464Z,27.6
2018-01-06T10:45:11.502Z,27.6
2018-01-06T10:46:13.454Z,27.6
2018-01-06T10:47:11.577Z,27.5
2018-01-06T10:48:13.744Z,27.5
2018-01-06T10:49:11.669Z,27.5
2018-01-06T10:50:11.695Z,27.5
2018-01-06T10:51:11.930Z,27.5
2018-01-06T10:52:11.809Z,27.5
2018-01-06T10:53:11.867Z,27.5
2018-01-06T10:54:11.849Z,27.4
2018-01-06T10:55:14.058Z,27.4
2018-01-06T10:56:13.884Z,27.4
2018-01-06T10:57:14.148Z,27.4
2018-01-06T10:58:12.338Z,27.4
2018-01-06T10:59:12.407Z,27.4
2018-01-06T11:00:12.342Z,27.4
2018-01-06T11:01:12.175Z,27.4
2018-01-06T11:02:14.372Z,27.4
2018-01-06T11:03:14.372Z,27.4
2018-01-06T11:04:14.492Z,27.4
2018-01-06T11:05:14.473Z,27.3
2018-01-06T11:06:14.497Z,27.4
2018-01-06T11:07:14.528Z,27.3
2018-01-06T11:08:12.642Z,27.4
2018-01-06T11:09:14.637Z,27.4
2018-01-06T11:10:12.498Z,27.4
2018-01-06T11:11:12.612Z,27.4
2018-01-06T11:12:12.586Z,27.4
2018-01-06T11:13:14.886Z,27.4
2018-01-06T11:14:12.932Z,27.4
2018-01-06T11:15:12.971Z,27.4
2018-01-06T11:16:12.996Z,27.4
2018-01-06T11:17:12.827Z,27.4
2018-01-06T11:18:12.860Z,27.5
2018-01-06T11:19:15.029Z,27.5
2018-01-06T11:20:14.817Z,27.5
2018-01-06T11:21:13.133Z,27.5
2018-01-06T11:22:12.940Z,27.5
2018-01-06T11:23:12.986Z,27.5
2018-01-06T11:24:13.001Z,27.5
2018-01-06T11:25:14.981Z,27.5
2018-01-06T11:26:13.290Z,27.5
2018-01-06T11:27:15.288Z,27.5
2018-01-06T11:28:13.158Z,27.5
2018-01-06T11:29:13.197Z,27.5
2018-01-06T11:30:13.505Z,27.5
2018-01-06T11:31:13.342Z,27.6
2018-01-06T11:32:13.605Z,27.6
2018-01-06T11:33:15.648Z,27.5
2018-01-06T11:34:15.683Z,27.6
2018-01-06T11:35:15.474Z,27.6
2018-01-06T11:36:13.819Z,27.6
2018-01-06T11:37:13.868Z,27.6
2018-01-06T11:38:13.919Z,27.6
2018-01-06T11:39:15.864Z,27.6
2018-01-06T11:40:15.876Z,27.6
2018-01-06T11:41:13.880Z,27.6
2018-01-06T11:42:13.910Z,27.6
2018-01-06T11:43:14.148Z,27.6
2018-01-06T11:44:15.945Z,27.6
2018-01-06T11:45:16.226Z,27.6
2018-01-06T11:46:14.364Z,27.7
2018-01-06T11:47:14.187Z,27.6
2018-01-06T11:48:14.496Z,27.7
2018-01-06T11:49:14.593Z,27.6
2018-01-06T11:50:14.402Z,27.7
2018-01-06T11:51:16.559Z,27.7
2018-01-06T11:52:16.404Z,27.6
2018-01-06T11:53:14.519Z,27.6
2018-01-06T11:54:16.700Z,27.7
2018-01-06T11:55:14.545Z,27.6
2018-01-06T11:56:14.566Z,27.7
2018-01-06T11:57:16.705Z,27.7
2018-01-06T11:58:14.817Z,27.7
2018-01-06T11:59:16.831Z,27.7
2018-01-06T12:00:14.718Z,27.7
2018-01-06T12:01:16.684Z,27.7
2018-01-06T12:02:16.777Z,27.7
2018-01-06T12:03:14.855Z,27.7
2018-01-06T12:04:16.870Z,27.7
2018-01-06T12:05:15.227Z,27.7
2018-01-06T12:06:17.230Z,27.7
2018-01-06T12:07:15.075Z,27.7
2018-01-06T12:08:15.305Z,27.7
2018-01-06T12:09:17.023Z,27.7
2018-01-06T12:10:17.122Z,27.7
2018-01-06T12:11:17.434Z,27.7
2018-01-06T12:12:15.322Z,27.7
2018-01-06T12:13:17.483Z,27.7
2018-01-06T12:14:15.581Z,27.7
2018-01-06T12:15:15.426Z,27.7
2018-01-06T12:16:17.679Z,27.7
2018-01-06T12:17:15.519Z,27.7
2018-01-06T12:18:15.788Z,27.7
2018-01-06T12:19:17.548Z,27.7
2018-01-06T12:20:17.782Z,27.7
2018-01-06T12:21:17.904Z,27.7
2018-01-06T12:22:15.770Z,27.6
2018-01-06T12:23:18.031Z,27.7
2018-01-06T12:24:18.122Z,27.7
2018-01-06T12:25:16.177Z,27.7
2018-01-06T12:26:16.000Z,27.7
2018-01-06T12:27:16.321Z,27.7
2018-01-06T12:28:16.163Z,27.7
2018-01-06T12:29:18.251Z,27.7
2018-01-06T12:30:18.362Z,27.7
2018-01-06T12:31:16.250Z,27.7
2018-01-06T12:32:18.459Z,27.7
2018-01-06T12:33:16.412Z,27.7
2018-01-06T12:34:18.331Z,27.7
2018-01-06T12:35:18.560Z,27.7
2018-01-06T12:36:16.434Z,27.7
2018-01-06T12:37:18.697Z,27.7
2018-01-06T12:38:16.632Z,27.7
2018-01-06T12:39:18.821Z,27.7
2018-01-06T12:40:16.661Z,27.7
2018-01-06T12:41:16.887Z,27.7
2018-01-06T12:42:18.641Z,27.7
2018-01-06T12:43:16.784Z,27.7
2018-01-06T12:44:16.831Z,27.7
2018-01-06T12:45:18.810Z,27.7
2018-01-06T12:46:16.853Z,27.7
2018-01-06T12:47:16.963Z,27.7
2018-01-06T12:48:17.155Z,27.7
2018-01-06T12:49:19.174Z,27.7
2018-01-06T12:50:17.085Z,27.7
2018-01-06T12:51:17.116Z,27.7
2018-01-06T12:52:17.288Z,27.7
2018-01-06T12:53:17.181Z,27.7
2018-01-06T12:54:17.208Z,27.7
2018-01-06T12:55:17.444Z,27.7
2018-01-06T12:56:17.292Z,27.7
2018-01-06T12:57:19.460Z,27.7
2018-01-06T12:58:17.373Z,27.7
2018-01-06T12:59:17.391Z,27.7
2018-01-06T13:00:17.728Z,27.7
2018-01-06T13:01:19.650Z,27.7
2018-01-06T13:02:17.564Z,27.7
2018-01-06T13:03:17.605Z,27.7
2018-01-06T13:04:19.640Z,27.7
2018-01-06T13:05:19.825Z,27.7
2018-01-06T13:06:17.776Z,27.7
2018-01-06T13:07:17.794Z,27.7
2018-01-06T13:08:17.873Z,27.7
2018-01-06T13:09:19.846Z,27.7
2018-01-06T13:10:20.032Z,27.7
2018-01-06T13:11:17.937Z,27.7
2018-01-06T13:12:19.915Z,27.7
2018-01-06T13:13:18.249Z,27.7
2018-01-06T13:14:18.117Z,27.7
2018-01-06T13:15:18.307Z,27.7
2018-01-06T13:16:20.293Z,27.7
2018-01-06T13:17:18.123Z,27.7
2018-01-06T13:18:18.147Z,27.7
2018-01-06T13:19:18.182Z,27.7
2018-01-06T13:20:18.268Z,27.7
2018-01-06T13:21:20.519Z,27.7
2018-01-06T13:22:18.414Z,27.7
2018-01-06T13:23:18.603Z,27.7
2018-01-06T13:24:18.631Z,27.7
2018-01-06T13:25:18.491Z,27.7
2018-01-06T13:26:18.529Z,27.7
2018-01-06T13:27:18.824Z,27.7
2018-01-06T13:28:20.581Z,27.7
2018-01-06T13:29:18.749Z,27.7
2018-01-06T13:30:18.794Z,27.7
2018-01-06T13:31:18.885Z,27.7
2018-01-06T13:32:21.057Z,27.8
2018-01-06T13:33:18.946Z,27.8
2018-01-06T13:34:18.959Z,27.8
2018-01-06T13:35:19.090Z,27.8
2018-01-06T13:36:19.304Z,27.7
2018-01-06T13:37:19.327Z,27.7
2018-01-06T13:38:21.173Z,27.7
2018-01-06T13:39:19.542Z,27.7
2018-01-06T13:40:19.401Z,27.7
2018-01-06T13:41:19.431Z,27.7
2018-01-06T13:42:19.447Z,27.7
2018-01-06T13:43:19.557Z,27.7
2018-01-06T13:44:19.595Z,27.7
2018-01-06T13:45:19.777Z,27.7
2018-01-06T13:46:19.671Z,27.7
2018-01-06T13:47:19.931Z,27.7
2018-01-06T13:48:21.903Z,27.7
2018-01-06T13:49:19.976Z,27.7
2018-01-06T13:50:19.809Z,27.7
2018-01-06T13:51:19.843Z,27.7
2018-01-06T13:52:21.863Z,27.7
2018-01-06T13:53:20.186Z,27.7
2018-01-06T13:54:20.035Z,27.7
2018-01-06T13:55:20.237Z,27.7
2018-01-06T13:56:22.239Z,27.7
2018-01-06T13:57:20.142Z,27.7
2018-01-06T13:58:22.345Z,27.7
2018-01-06T13:59:20.197Z,27.8
2018-01-06T14:00:20.248Z,27.8
2018-01-06T14:01:20.279Z,27.8